createdAt,value
2023-04-23T00:00:40.886Z,0.00
2023-04-23T00:01:40.896Z,0.00
2023-04-23T00:02:40.976Z,0.00
2023-04-23T00:03:41.152Z,0.00
2023-04-23T00:04:41.541Z,0.00
2023-04-23T00:05:40.826Z,0.00
2023-04-23T00:06:40.821Z,0.00
2023-04-23T00:07:40.805Z,0.00
2023-04-23T00:08:40.820Z,0.00
2023-04-23T00:09:40.793Z,0.00
2023-04-23T00:10:40.779Z,0.00
2023-04-23T00:11:40.765Z,0.00
2023-04-23T00:12:40.744Z,0.00
2023-04-23T00:13:40.740Z,0.00
2023-04-23T00:14:40.911Z,0.00
2023-04-23T00:15:40.721Z,0.00
2023-04-23T00:16:40.815Z,0.00
2023-04-23T00:17:40.765Z,0.00
2023-04-23T00:18:40.679Z,0.00
2023-04-23T00:19:40.686Z,0.00
2023-04-23T00:20:40.656Z,0.00
2023-04-23T00:21:40.661Z,0.00
2023-04-23T00:22:40.629Z,0.00
2023-04-23T00:23:40.642Z,0.00
2023-04-23T00:24:40.891Z,0.00
2023-04-23T00:25:40.623Z,0.00
2023-04-23T00:26:40.613Z,0.00
2023-04-23T00:27:40.595Z,0.00
2023-04-23T00:28:40.577Z,0.00
2023-04-23T00:29:40.570Z,0.00
2023-04-23T00:30:40.557Z,0.00
2023-04-23T00:31:40.584Z,0.00
2023-04-23T00:32:40.557Z,0.00
2023-04-23T00:33:40.549Z,0.00
2023-04-23T00:34:40.693Z,0.00
2023-04-23T00:35:40.512Z,0.00
2023-04-23T00:36:40.494Z,0.00
2023-04-23T00:37:40.486Z,0.00
2023-04-23T00:38:40.465Z,0.00
2023-04-23T00:39:40.465Z,0.00
2023-04-23T00:40:40.448Z,0.00
2023-04-23T00:41:40.437Z,0.00
2023-04-23T00:42:40.424Z,0.00
2023-04-23T00:43:40.429Z,0.00
2023-04-23T00:44:40.805Z,0.00
2023-04-23T00:45:40.431Z,0.00
2023-04-23T00:46:40.385Z,0.00
2023-04-23T00:47:40.411Z,0.00
2023-04-23T00:48:40.359Z,0.00
2023-04-23T00:49:40.386Z,0.00
2023-04-23T00:50:40.336Z,0.00
2023-04-23T00:51:40.336Z,0.00
2023-04-23T00:52:40.315Z,0.00
2023-04-23T00:53:40.319Z,0.00
2023-04-23T00:54:40.491Z,0.00
2023-04-23T00:55:40.293Z,0.00
2023-04-23T00:56:40.273Z,0.00
2023-04-23T00:57:40.269Z,0.00
2023-04-23T00:58:40.249Z,0.00
2023-04-23T00:59:40.251Z,0.00
2023-04-23T01:00:40.257Z,0.00
2023-04-23T01:01:40.250Z,0.00
2023-04-23T01:02:40.327Z,0.00
2023-04-23T01:03:40.335Z,0.00
2023-04-23T01:04:40.501Z,0.00
2023-04-23T01:05:40.207Z,0.00
2023-04-23T01:06:40.169Z,0.00
2023-04-23T01:07:40.164Z,0.00
2023-04-23T01:08:40.149Z,0.00
2023-04-23T01:09:40.163Z,0.00
2023-04-23T01:10:40.124Z,0.00
2023-04-23T01:11:40.120Z,0.00
2023-04-23T01:12:40.126Z,0.00
2023-04-23T01:13:40.096Z,0.00
2023-04-23T01:14:40.375Z,0.00
2023-04-23T01:15:40.077Z,0.00
2023-04-23T01:16:40.107Z,0.00
2023-04-23T01:17:40.072Z,0.00
2023-04-23T01:18:40.047Z,0.00
2023-04-23T01:19:40.045Z,0.00
2023-04-23T01:20:40.019Z,0.00
2023-04-23T01:21:40.058Z,0.00
2023-04-23T01:22:39.998Z,0.00
2023-04-23T01:23:39.995Z,0.00
2023-04-23T01:24:40.207Z,0.00
2023-04-23T01:25:39.973Z,0.00
2023-04-23T01:26:39.962Z,0.00
2023-04-23T01:27:39.953Z,0.00
2023-04-23T01:28:39.934Z,0.00
2023-04-23T01:29:39.940Z,0.00
2023-04-23T01:30:39.957Z,0.00
2023-04-23T01:31:39.908Z,0.00
2023-04-23T01:32:39.901Z,0.00
2023-04-23T01:33:39.883Z,0.00
2023-04-23T01:34:40.120Z,0.00
2023-04-23T01:35:39.869Z,0.00
2023-04-23T01:36:39.846Z,0.00
2023-04-23T01:37:39.874Z,0.00
2023-04-23T01:38:39.831Z,0.00
2023-04-23T01:39:39.822Z,0.00
2023-04-23T01:40:39.801Z,0.00
2023-04-23T01:41:39.807Z,0.00
2023-04-23T01:42:39.780Z,0.00
2023-04-23T01:43:39.779Z,0.00
2023-04-23T01:44:40.035Z,0.00
2023-04-23T01:45:39.758Z,0.00
2023-04-23T01:46:39.806Z,0.00
2023-04-23T01:47:39.802Z,0.00
2023-04-23T01:48:39.725Z,0.00
2023-04-23T01:49:39.723Z,0.00
2023-04-23T01:50:39.697Z,0.00
2023-04-23T01:51:39.693Z,0.00
2023-04-23T01:52:39.680Z,0.00
2023-04-23T01:53:39.697Z,0.00
2023-04-23T01:54:39.833Z,0.00
2023-04-23T01:55:39.650Z,0.00
2023-04-23T01:56:39.630Z,0.00
2023-04-23T01:57:39.646Z,0.00
2023-04-23T01:58:39.614Z,0.00
2023-04-23T01:59:39.603Z,0.00
2023-04-23T02:00:39.589Z,0.00
2023-04-23T02:01:39.625Z,0.00
2023-04-23T02:02:39.772Z,0.00
2023-04-23T02:03:39.788Z,0.00
2023-04-23T02:04:39.853Z,0.00
2023-04-23T02:05:39.545Z,0.00
2023-04-23T02:06:39.519Z,0.00
2023-04-23T02:07:39.524Z,0.00
2023-04-23T02:08:39.501Z,0.00
2023-04-23T02:09:39.531Z,0.00
2023-04-23T02:10:39.473Z,0.00
2023-04-23T02:11:39.479Z,0.00
2023-04-23T02:12:39.465Z,0.00
2023-04-23T02:13:39.452Z,0.00
2023-04-23T02:14:39.745Z,0.00
2023-04-23T02:15:39.437Z,0.00
2023-04-23T02:16:39.427Z,0.00
2023-04-23T02:17:39.504Z,0.00
2023-04-23T02:18:39.397Z,0.00
2023-04-23T02:19:39.398Z,0.00
2023-04-23T02:20:39.377Z,0.00
2023-04-23T02:21:39.372Z,0.00
2023-04-23T02:22:39.383Z,0.00
2023-04-23T02:23:39.353Z,0.00
2023-04-23T02:24:39.728Z,0.00
2023-04-23T02:25:39.351Z,0.00
2023-04-23T02:26:39.311Z,0.00
2023-04-23T02:27:39.309Z,0.00
2023-04-23T02:28:39.294Z,0.00
2023-04-23T02:29:39.288Z,0.00
2023-04-23T02:30:39.278Z,0.00
2023-04-23T02:31:39.286Z,0.00
2023-04-23T02:32:39.314Z,0.00
2023-04-23T02:33:39.250Z,0.00
2023-04-23T02:34:39.478Z,0.00
2023-04-23T02:35:39.221Z,0.00
2023-04-23T02:36:39.234Z,0.00
2023-04-23T02:37:39.209Z,0.00
2023-04-23T02:38:39.179Z,0.00
2023-04-23T02:39:39.515Z,0.00
2023-04-23T02:40:39.163Z,0.00
2023-04-23T02:41:39.181Z,0.00
2023-04-23T02:42:40.793Z,0.00
2023-04-23T02:43:39.148Z,0.00
2023-04-23T02:44:39.506Z,0.00
2023-04-23T02:45:39.110Z,0.00
2023-04-23T02:46:39.174Z,0.00
2023-04-23T02:47:39.112Z,0.00
2023-04-23T02:48:39.076Z,0.00
2023-04-23T02:49:39.074Z,0.00
2023-04-23T02:50:39.062Z,0.00
2023-04-23T02:51:39.052Z,0.00
2023-04-23T02:52:39.030Z,0.00
2023-04-23T02:53:39.021Z,0.00
2023-04-23T02:54:39.322Z,0.00
2023-04-23T02:55:39.012Z,0.00
2023-04-23T02:56:38.990Z,0.00
2023-04-23T02:57:39.006Z,0.00
2023-04-23T02:58:38.965Z,0.00
2023-04-23T02:59:38.973Z,0.00
2023-04-23T03:00:38.992Z,0.00
2023-04-23T03:01:38.953Z,0.00
2023-04-23T03:02:39.074Z,0.00
2023-04-23T03:03:39.037Z,0.00
2023-04-23T03:04:38.965Z,0.00
2023-04-23T03:05:38.909Z,0.00
2023-04-23T03:06:38.876Z,0.00
2023-04-23T03:07:38.876Z,0.00
2023-04-23T03:08:38.859Z,0.00
2023-04-23T03:09:38.871Z,0.00
2023-04-23T03:10:38.836Z,0.00
2023-04-23T03:11:38.825Z,0.00
2023-04-23T03:12:38.842Z,0.00
2023-04-23T03:13:38.831Z,0.00
2023-04-23T03:14:38.995Z,0.00
2023-04-23T03:15:38.795Z,0.00
2023-04-23T03:16:38.819Z,0.00
2023-04-23T03:17:38.924Z,0.00
2023-04-23T03:18:38.770Z,0.00
2023-04-23T03:19:38.846Z,0.00
2023-04-23T03:20:38.742Z,0.00
2023-04-23T03:21:38.723Z,0.00
2023-04-23T03:22:38.727Z,0.00
2023-04-23T03:23:38.704Z,0.00
2023-04-23T03:24:38.854Z,0.00
2023-04-23T03:25:38.681Z,0.00
2023-04-23T03:26:38.676Z,0.00
2023-04-23T03:27:40.138Z,0.00
2023-04-23T03:28:38.656Z,0.00
2023-04-23T03:29:38.659Z,0.00
2023-04-23T03:30:38.696Z,0.00
2023-04-23T03:31:38.617Z,0.00
2023-04-23T03:32:38.772Z,0.00
2023-04-23T03:33:38.612Z,0.00
2023-04-23T03:34:38.698Z,0.00
2023-04-23T03:35:38.599Z,0.00
2023-04-23T03:36:38.574Z,0.00
2023-04-23T03:37:38.594Z,0.00
2023-04-23T03:38:38.553Z,0.00
2023-04-23T03:39:38.564Z,0.00
2023-04-23T03:40:38.603Z,0.00
2023-04-23T03:41:38.509Z,0.00
2023-04-23T03:42:38.529Z,0.00
2023-04-23T03:43:38.483Z,0.00
2023-04-23T03:44:38.643Z,0.00
2023-04-23T03:45:38.486Z,0.00
2023-04-23T03:46:38.519Z,0.00
2023-04-23T03:47:38.467Z,0.00
2023-04-23T03:48:38.445Z,0.00
2023-04-23T03:49:38.424Z,0.00
2023-04-23T03:50:38.424Z,0.00
2023-04-23T03:51:38.405Z,0.00
2023-04-23T03:52:38.402Z,0.00
2023-04-23T03:53:38.385Z,0.00
2023-04-23T03:54:38.432Z,0.00
2023-04-23T03:55:38.364Z,0.00
2023-04-23T03:56:38.362Z,0.00
2023-04-23T03:57:38.350Z,0.00
2023-04-23T03:58:38.342Z,0.00
2023-04-23T03:59:38.273Z,0.00
2023-04-23T04:00:38.263Z,0.00
2023-04-23T04:01:38.274Z,0.00
2023-04-23T04:02:38.349Z,0.00
2023-04-23T04:03:38.389Z,0.00
2023-04-23T04:04:38.365Z,0.00
2023-04-23T04:05:38.361Z,0.00
2023-04-23T04:06:38.204Z,0.00
2023-04-23T04:07:38.201Z,0.00
2023-04-23T04:08:38.175Z,0.00
2023-04-23T04:09:38.161Z,0.00
2023-04-23T04:10:38.165Z,0.00
2023-04-23T04:11:38.143Z,0.00
2023-04-23T04:12:38.138Z,0.00
2023-04-23T04:13:38.119Z,0.00
2023-04-23T04:14:38.111Z,0.00
2023-04-23T04:15:38.100Z,0.00
2023-04-23T04:16:38.104Z,0.00
2023-04-23T04:17:38.153Z,0.00
2023-04-23T04:18:38.081Z,0.00
2023-04-23T04:19:38.056Z,0.00
2023-04-23T04:20:38.058Z,0.00
2023-04-23T04:21:38.059Z,0.00
2023-04-23T04:22:38.042Z,0.00
2023-04-23T04:23:38.015Z,0.00
2023-04-23T04:24:38.028Z,0.00
2023-04-23T04:25:37.992Z,0.00
2023-04-23T04:26:38.014Z,0.00
2023-04-23T04:27:37.973Z,0.00
2023-04-23T04:28:37.973Z,0.00
2023-04-23T04:29:37.945Z,5.62
2023-04-23T04:30:37.945Z,5.62
2023-04-23T04:31:37.962Z,5.62
2023-04-23T04:32:37.956Z,5.62
2023-04-23T04:33:37.927Z,5.62
2023-04-23T04:34:37.898Z,5.62
2023-04-23T04:35:37.889Z,5.62
2023-04-23T04:36:37.884Z,11.25
2023-04-23T04:37:37.863Z,11.25
2023-04-23T04:38:37.999Z,11.25
2023-04-23T04:39:37.833Z,11.25
2023-04-23T04:40:37.837Z,11.25
2023-04-23T04:41:37.816Z,16.87
2023-04-23T04:42:37.813Z,16.87
2023-04-23T04:43:37.805Z,16.87
2023-04-23T04:44:37.986Z,16.87
2023-04-23T04:45:37.775Z,16.87
2023-04-23T04:46:37.812Z,16.87
2023-04-23T04:47:37.802Z,22.50
2023-04-23T04:48:37.748Z,22.50
2023-04-23T04:49:37.764Z,22.50
2023-04-23T04:50:37.726Z,28.12
2023-04-23T04:51:37.713Z,28.12
2023-04-23T04:52:37.720Z,28.12
2023-04-23T04:53:37.693Z,28.12
2023-04-23T04:54:37.680Z,33.75
2023-04-23T04:55:37.671Z,33.75
2023-04-23T04:56:37.680Z,33.75
2023-04-23T04:57:37.683Z,33.75
2023-04-23T04:58:37.653Z,33.75
2023-04-23T04:59:37.627Z,33.75
2023-04-23T05:00:37.634Z,33.75
2023-04-23T05:01:37.688Z,33.75
2023-04-23T05:02:37.742Z,39.37
2023-04-23T05:03:37.872Z,39.37
2023-04-23T05:04:37.581Z,39.37
2023-04-23T05:05:37.612Z,39.37
2023-04-23T05:06:37.561Z,45.00
2023-04-23T05:07:37.552Z,45.00
2023-04-23T05:08:37.539Z,45.00
2023-04-23T05:09:37.517Z,45.00
2023-04-23T05:10:37.515Z,45.00
2023-04-23T05:11:37.494Z,45.00
2023-04-23T05:12:37.498Z,45.00
2023-04-23T05:13:37.479Z,50.62
2023-04-23T05:14:37.471Z,50.62
2023-04-23T05:15:37.465Z,50.62
2023-04-23T05:16:37.490Z,56.25
2023-04-23T05:17:37.584Z,56.25
2023-04-23T05:18:37.429Z,56.25
2023-04-23T05:19:37.413Z,56.25
2023-04-23T05:20:37.429Z,61.87
2023-04-23T05:21:37.504Z,56.25
2023-04-23T05:22:37.387Z,56.25
2023-04-23T05:23:37.379Z,67.50
2023-04-23T05:24:37.379Z,73.12
2023-04-23T05:25:37.377Z,78.75
2023-04-23T05:26:37.365Z,84.37
2023-04-23T05:27:37.340Z,90.00
2023-04-23T05:28:37.335Z,95.62
2023-04-23T05:29:37.308Z,101.25
2023-04-23T05:30:37.316Z,106.87
2023-04-23T05:31:37.323Z,106.87
2023-04-23T05:32:37.315Z,106.87
2023-04-23T05:33:49.276Z,106.87
2023-04-23T05:34:38.394Z,106.87
2023-04-23T05:35:37.262Z,112.50
2023-04-23T05:36:37.263Z,112.50
2023-04-23T05:37:37.249Z,118.12
2023-04-23T05:38:37.221Z,112.50
2023-04-23T05:39:37.197Z,112.50
2023-04-23T05:40:37.207Z,118.12
2023-04-23T05:41:37.189Z,123.75
2023-04-23T05:42:37.171Z,129.37
2023-04-23T05:43:37.156Z,135.00
2023-04-23T05:44:37.166Z,140.62
2023-04-23T05:45:37.128Z,135.00
2023-04-23T05:46:37.183Z,135.00
2023-04-23T05:47:37.256Z,129.37
2023-04-23T05:48:37.103Z,118.12
2023-04-23T05:49:37.091Z,95.62
2023-04-23T05:50:37.084Z,90.00
2023-04-23T05:51:37.083Z,95.62
2023-04-23T05:52:37.065Z,95.62
2023-04-23T05:53:37.069Z,95.62
2023-04-23T05:54:37.075Z,106.87
2023-04-23T05:55:37.051Z,112.50
2023-04-23T05:56:37.012Z,123.75
2023-04-23T05:57:37.097Z,140.62
2023-04-23T05:58:37.001Z,168.75
2023-04-23T05:59:36.980Z,168.75
2023-04-23T06:00:37.000Z,180.00
2023-04-23T06:01:36.953Z,168.75
2023-04-23T06:02:37.009Z,151.87
2023-04-23T06:03:37.182Z,140.62
2023-04-23T06:04:37.225Z,140.62
2023-04-23T06:05:36.985Z,140.62
2023-04-23T06:06:36.912Z,146.25
2023-04-23T06:07:36.890Z,146.25
2023-04-23T06:08:36.896Z,151.87
2023-04-23T06:09:36.912Z,151.87
2023-04-23T06:10:36.868Z,146.25
2023-04-23T06:11:36.848Z,140.62
2023-04-23T06:12:36.843Z,140.62
2023-04-23T06:13:36.820Z,146.25
2023-04-23T06:14:36.822Z,163.12
2023-04-23T06:15:36.897Z,157.50
2023-04-23T06:16:36.792Z,151.87
2023-04-23T06:17:36.861Z,157.50
2023-04-23T06:18:36.774Z,163.12
2023-04-23T06:19:36.757Z,168.75
2023-04-23T06:20:36.756Z,163.12
2023-04-23T06:21:36.738Z,168.75
2023-04-23T06:22:36.726Z,174.37
2023-04-23T06:23:36.735Z,168.75
2023-04-23T06:24:36.710Z,168.75
2023-04-23T06:25:36.714Z,180.00
2023-04-23T06:26:36.695Z,174.37
2023-04-23T06:27:36.663Z,157.50
2023-04-23T06:28:36.682Z,135.00
2023-04-23T06:29:36.649Z,157.50
2023-04-23T06:30:36.649Z,174.37
2023-04-23T06:31:36.653Z,168.75
2023-04-23T06:32:36.644Z,180.00
2023-04-23T06:33:36.600Z,185.62
2023-04-23T06:34:38.599Z,180.00
2023-04-23T06:35:36.578Z,174.37
2023-04-23T06:36:36.581Z,174.37
2023-04-23T06:37:36.612Z,174.37
2023-04-23T06:38:36.556Z,180.00
2023-04-23T06:39:36.542Z,191.25
2023-04-23T06:40:36.540Z,196.87
2023-04-23T06:41:36.542Z,196.87
2023-04-23T06:42:36.514Z,191.25
2023-04-23T06:43:36.507Z,168.75
2023-04-23T06:44:36.502Z,191.25
2023-04-23T06:45:36.477Z,174.37
2023-04-23T06:46:36.497Z,185.62
2023-04-23T06:47:36.511Z,202.50
2023-04-23T06:48:36.451Z,202.50
2023-04-23T06:49:36.426Z,202.50
2023-04-23T06:50:36.420Z,202.50
2023-04-23T06:51:36.410Z,208.12
2023-04-23T06:52:36.415Z,225.00
2023-04-23T06:53:36.386Z,225.00
2023-04-23T06:54:36.384Z,236.25
2023-04-23T06:55:36.370Z,241.87
2023-04-23T06:56:36.364Z,219.37
2023-04-23T06:57:36.358Z,208.12
2023-04-23T06:58:36.461Z,225.00
2023-04-23T06:59:36.324Z,236.25
2023-04-23T07:00:36.332Z,230.62
2023-04-23T07:01:36.309Z,258.75
2023-04-23T07:02:36.475Z,241.87
2023-04-23T07:03:36.320Z,247.50
2023-04-23T07:04:36.335Z,275.62
2023-04-23T07:05:36.269Z,275.62
2023-04-23T07:06:36.264Z,236.25
2023-04-23T07:07:36.243Z,225.00
2023-04-23T07:08:36.289Z,208.12
2023-04-23T07:09:36.237Z,208.12
2023-04-23T07:10:36.226Z,230.62
2023-04-23T07:11:36.209Z,241.87
2023-04-23T07:12:36.202Z,236.25
2023-04-23T07:13:36.212Z,241.87
2023-04-23T07:14:36.180Z,264.37
2023-04-23T07:15:36.281Z,281.25
2023-04-23T07:16:36.216Z,241.87
2023-04-23T07:17:36.207Z,225.00
2023-04-23T07:18:36.165Z,241.87
2023-04-23T07:19:36.132Z,253.12
2023-04-23T07:20:36.124Z,264.37
2023-04-23T07:21:36.109Z,247.50
2023-04-23T07:22:36.109Z,230.62
2023-04-23T07:23:36.091Z,225.00
2023-04-23T07:24:36.078Z,236.25
2023-04-23T07:25:36.059Z,225.00
2023-04-23T07:26:36.063Z,247.50
2023-04-23T07:27:36.047Z,292.50
2023-04-23T07:28:36.037Z,315.00
2023-04-23T07:29:36.226Z,309.37
2023-04-23T07:30:36.011Z,315.00
2023-04-23T07:31:36.091Z,315.00
2023-04-23T07:32:36.024Z,315.00
2023-04-23T07:33:35.982Z,326.25
2023-04-23T07:34:36.285Z,315.00
2023-04-23T07:35:35.961Z,326.25
2023-04-23T07:36:35.947Z,309.37
2023-04-23T07:37:35.946Z,298.12
2023-04-23T07:38:35.928Z,309.37
2023-04-23T07:39:35.925Z,315.00
2023-04-23T07:40:35.898Z,303.75
2023-04-23T07:41:35.898Z,275.62
2023-04-23T07:42:35.878Z,298.12
2023-04-23T07:43:35.875Z,303.75
2023-04-23T07:44:35.854Z,281.25
2023-04-23T07:45:35.873Z,286.87
2023-04-23T07:46:35.844Z,309.37
2023-04-23T07:47:35.881Z,320.62
2023-04-23T07:48:35.813Z,337.50
2023-04-23T07:49:35.813Z,331.87
2023-04-23T07:50:35.787Z,286.87
2023-04-23T07:51:35.790Z,298.12
2023-04-23T07:52:35.774Z,303.75
2023-04-23T07:53:35.776Z,292.50
2023-04-23T07:54:35.757Z,292.50
2023-04-23T07:55:35.745Z,292.50
2023-04-23T07:56:35.735Z,292.50
2023-04-23T07:57:35.722Z,286.87
2023-04-23T07:58:35.752Z,292.50
2023-04-23T07:59:35.695Z,365.62
2023-04-23T08:00:35.690Z,388.12
2023-04-23T08:01:35.716Z,405.00
2023-04-23T08:02:35.811Z,433.12
2023-04-23T08:03:35.950Z,393.75
2023-04-23T08:04:35.757Z,326.25
2023-04-23T08:05:35.645Z,275.62
2023-04-23T08:06:35.645Z,241.87
2023-04-23T08:07:35.622Z,236.25
2023-04-23T08:08:35.603Z,253.12
2023-04-23T08:09:35.596Z,281.25
2023-04-23T08:10:35.681Z,275.62
2023-04-23T08:11:35.575Z,270.00
2023-04-23T08:12:35.555Z,281.25
2023-04-23T08:13:35.556Z,320.62
2023-04-23T08:14:35.536Z,354.37
2023-04-23T08:15:35.530Z,348.75
2023-04-23T08:16:38.656Z,303.75
2023-04-23T08:17:35.555Z,264.37
2023-04-23T08:18:35.486Z,253.12
2023-04-23T08:19:35.491Z,241.87
2023-04-23T08:20:35.471Z,253.12
2023-04-23T08:21:35.472Z,270.00
2023-04-23T08:22:35.472Z,258.75
2023-04-23T08:23:35.443Z,264.37
2023-04-23T08:24:35.419Z,292.50
2023-04-23T08:25:35.431Z,320.62
2023-04-23T08:26:35.418Z,354.37
2023-04-23T08:27:35.394Z,405.00
2023-04-23T08:28:35.382Z,410.62
2023-04-23T08:29:35.375Z,382.50
2023-04-23T08:30:35.355Z,337.50
2023-04-23T08:31:35.378Z,348.75
2023-04-23T08:32:35.354Z,410.62
2023-04-23T08:33:35.466Z,450.00
2023-04-23T08:34:35.936Z,483.75
2023-04-23T08:35:35.312Z,472.50
2023-04-23T08:36:35.292Z,421.87
2023-04-23T08:37:35.294Z,393.75
2023-04-23T08:38:35.269Z,376.87
2023-04-23T08:39:35.267Z,343.12
2023-04-23T08:40:35.249Z,315.00
2023-04-23T08:41:35.243Z,286.87
2023-04-23T08:42:35.233Z,236.25
2023-04-23T08:43:35.250Z,208.12
2023-04-23T08:44:35.211Z,202.50
2023-04-23T08:45:35.209Z,219.37
2023-04-23T08:46:35.223Z,230.62
2023-04-23T08:47:35.225Z,253.12
2023-04-23T08:48:35.164Z,270.00
2023-04-23T08:49:35.192Z,286.87
2023-04-23T08:50:35.140Z,326.25
2023-04-23T08:51:35.139Z,399.37
2023-04-23T08:52:35.119Z,427.50
2023-04-23T08:53:35.114Z,444.37
2023-04-23T08:54:35.100Z,523.12
2023-04-23T08:55:35.093Z,568.12
2023-04-23T08:56:35.085Z,568.12
2023-04-23T08:57:35.078Z,590.62
2023-04-23T08:58:35.065Z,579.37
2023-04-23T08:59:35.055Z,579.37
2023-04-23T09:00:35.045Z,556.87
2023-04-23T09:01:35.031Z,517.50
2023-04-23T09:02:35.213Z,466.87
2023-04-23T09:03:35.047Z,433.12
2023-04-23T09:04:34.991Z,416.25
2023-04-23T09:05:35.019Z,393.75
2023-04-23T09:06:34.965Z,393.75
2023-04-23T09:07:34.967Z,410.62
2023-04-23T09:08:34.952Z,450.00
2023-04-23T09:09:34.947Z,478.12
2023-04-23T09:10:34.934Z,478.12
2023-04-23T09:11:34.924Z,455.62
2023-04-23T09:12:34.905Z,405.00
2023-04-23T09:13:34.909Z,382.50
2023-04-23T09:14:35.008Z,382.50
2023-04-23T09:15:34.878Z,393.75
2023-04-23T09:16:34.937Z,382.50
2023-04-23T09:17:34.889Z,365.62
2023-04-23T09:18:34.840Z,360.00
2023-04-23T09:19:34.836Z,360.00
2023-04-23T09:20:34.820Z,360.00
2023-04-23T09:21:34.840Z,354.37
2023-04-23T09:22:34.797Z,326.25
2023-04-23T09:23:34.827Z,320.62
2023-04-23T09:24:34.781Z,315.00
2023-04-23T09:25:34.793Z,326.25
2023-04-23T09:26:34.759Z,337.50
2023-04-23T09:27:34.767Z,365.62
2023-04-23T09:28:34.740Z,393.75
2023-04-23T09:29:34.738Z,438.75
2023-04-23T09:30:34.713Z,495.00
2023-04-23T09:31:34.744Z,545.62
2023-04-23T09:32:34.723Z,568.12
2023-04-23T09:33:34.690Z,568.12
2023-04-23T09:34:34.674Z,540.00
2023-04-23T09:35:34.682Z,506.25
2023-04-23T09:36:34.647Z,523.12
2023-04-23T09:37:34.673Z,495.00
2023-04-23T09:38:34.624Z,489.37
2023-04-23T09:39:34.629Z,500.62
2023-04-23T09:40:34.604Z,455.62
2023-04-23T09:41:34.611Z,461.25
2023-04-23T09:42:34.595Z,466.87
2023-04-23T09:43:34.591Z,466.87
2023-04-23T09:44:34.562Z,483.75
2023-04-23T09:45:34.571Z,556.87
2023-04-23T09:46:34.553Z,540.00
2023-04-23T09:47:34.571Z,624.37
2023-04-23T09:48:34.531Z,590.62
2023-04-23T09:49:34.522Z,601.87
2023-04-23T09:50:34.521Z,590.62
2023-04-23T09:51:34.498Z,613.12
2023-04-23T09:52:34.492Z,613.12
2023-04-23T09:53:34.494Z,641.25
2023-04-23T09:54:34.455Z,770.62
2023-04-23T09:55:34.462Z,680.62
2023-04-23T09:56:34.449Z,646.87
2023-04-23T09:57:34.433Z,585.00
2023-04-23T09:58:34.421Z,562.50
2023-04-23T09:59:47.088Z,573.75
2023-04-23T10:00:34.406Z,573.75
2023-04-23T10:01:34.460Z,556.87
2023-04-23T10:02:34.492Z,585.00
2023-04-23T10:03:34.474Z,562.50
2023-04-23T10:04:34.601Z,545.62
2023-04-23T10:05:45.333Z,540.00
2023-04-23T10:06:42.290Z,517.50
2023-04-23T10:07:35.362Z,511.87
2023-04-23T10:08:34.313Z,495.00
2023-04-23T10:09:34.324Z,601.87
2023-04-23T10:10:36.376Z,556.87
2023-04-23T10:11:35.312Z,585.00
2023-04-23T10:12:52.307Z,596.25
2023-04-23T10:13:35.292Z,613.12
2023-04-23T10:14:34.246Z,607.50
2023-04-23T10:15:34.254Z,540.00
2023-04-23T10:16:46.040Z,540.00
2023-04-23T10:17:35.327Z,540.00
2023-04-23T10:18:34.192Z,556.87
2023-04-23T10:19:34.189Z,551.25
2023-04-23T10:20:34.174Z,540.00
2023-04-23T10:21:42.931Z,613.12
2023-04-23T10:22:35.200Z,613.12
2023-04-23T10:23:34.154Z,601.87
2023-04-23T10:24:34.123Z,680.62
2023-04-23T10:25:34.165Z,748.12
2023-04-23T10:26:34.113Z,703.12
2023-04-23T10:27:51.018Z,675.00
2023-04-23T10:28:35.149Z,641.25
2023-04-23T10:29:34.096Z,618.75
2023-04-23T10:30:34.070Z,646.87
2023-04-23T10:31:34.106Z,624.37
2023-04-23T10:32:34.078Z,596.25
2023-04-23T10:33:42.684Z,658.12
2023-04-23T10:34:34.053Z,714.37
2023-04-23T10:35:34.020Z,691.87
2023-04-23T10:36:34.004Z,720.00
2023-04-23T10:37:33.999Z,748.12
2023-04-23T10:38:33.984Z,765.00
2023-04-23T10:39:33.989Z,748.12
2023-04-23T10:40:33.965Z,731.25
2023-04-23T10:41:33.983Z,748.12
2023-04-23T10:42:33.944Z,742.50
2023-04-23T10:43:33.935Z,736.87
2023-04-23T10:44:56.618Z,731.25
2023-04-23T10:45:34.957Z,731.25
2023-04-23T10:46:35.800Z,720.00
2023-04-23T10:47:33.951Z,703.12
2023-04-23T10:48:33.881Z,703.12
2023-04-23T10:49:33.874Z,720.00
2023-04-23T10:50:34.184Z,708.75
2023-04-23T10:52:14.727Z,703.12
2023-04-23T10:52:34.878Z,686.25
2023-04-23T10:53:33.832Z,630.00
2023-04-23T10:54:33.823Z,658.12
2023-04-23T10:55:33.813Z,652.50
2023-04-23T10:56:33.794Z,641.25
2023-04-23T10:57:33.817Z,630.00
2023-04-23T10:58:33.769Z,613.12
2023-04-23T10:59:33.780Z,607.50
2023-04-23T11:00:33.750Z,585.00
2023-04-23T11:01:33.763Z,551.25
2023-04-23T11:02:33.842Z,551.25
2023-04-23T11:03:34.056Z,607.50
2023-04-23T11:04:33.941Z,663.75
2023-04-23T11:05:33.721Z,669.37
2023-04-23T11:06:33.697Z,669.37
2023-04-23T11:07:33.700Z,691.87
2023-04-23T11:08:33.693Z,708.75
2023-04-23T11:09:33.666Z,731.25
2023-04-23T11:10:33.662Z,686.25
2023-04-23T11:11:33.648Z,658.12
2023-04-23T11:12:33.631Z,652.50
2023-04-23T11:13:33.645Z,652.50
2023-04-23T11:14:33.612Z,652.50
2023-04-23T11:15:33.610Z,641.25
2023-04-23T11:16:33.642Z,618.75
2023-04-23T11:17:33.617Z,590.62
2023-04-23T11:18:33.581Z,562.50
2023-04-23T11:19:33.567Z,545.62
2023-04-23T11:20:33.550Z,540.00
2023-04-23T11:21:33.541Z,540.00
2023-04-23T11:22:33.525Z,534.37
2023-04-23T11:23:33.526Z,534.37
2023-04-23T11:24:33.504Z,551.25
2023-04-23T11:25:33.504Z,585.00
2023-04-23T11:26:33.493Z,624.37
2023-04-23T11:27:33.489Z,652.50
2023-04-23T11:28:33.465Z,686.25
2023-04-23T11:29:33.482Z,714.37
2023-04-23T11:30:33.443Z,720.00
2023-04-23T11:31:33.451Z,725.62
2023-04-23T11:32:33.517Z,725.62
2023-04-23T11:33:33.415Z,736.87
2023-04-23T11:34:33.399Z,731.25
2023-04-23T11:35:33.393Z,720.00
2023-04-23T11:36:33.374Z,708.75
2023-04-23T11:37:33.376Z,703.12
2023-04-23T11:38:33.358Z,703.12
2023-04-23T11:39:33.349Z,714.37
2023-04-23T11:40:33.338Z,748.12
2023-04-23T11:41:33.327Z,765.00
2023-04-23T11:42:33.311Z,798.75
2023-04-23T11:43:33.302Z,765.00
2023-04-23T11:44:33.320Z,770.62
2023-04-23T11:45:33.335Z,776.25
2023-04-23T11:46:33.428Z,798.75
2023-04-23T11:47:33.260Z,787.50
2023-04-23T11:48:33.252Z,849.37
2023-04-23T11:49:33.241Z,1035.00
2023-04-23T11:50:33.760Z,950.62
2023-04-23T11:51:33.217Z,939.37
2023-04-23T11:52:33.211Z,933.75
2023-04-23T11:53:33.198Z,883.12
2023-04-23T11:54:33.189Z,950.62
2023-04-23T11:55:33.172Z,956.25
2023-04-23T11:56:33.172Z,1068.75
2023-04-23T11:57:33.151Z,1372.50
2023-04-23T11:58:33.149Z,1108.12
2023-04-23T11:59:33.132Z,967.50
2023-04-23T12:00:33.134Z,855.00
2023-04-23T12:01:33.133Z,810.00
2023-04-23T12:02:33.253Z,736.87
2023-04-23T12:03:33.315Z,815.62
2023-04-23T12:04:33.148Z,787.50
2023-04-23T12:05:33.196Z,832.50
2023-04-23T12:06:33.068Z,956.25
2023-04-23T12:07:33.045Z,995.62
2023-04-23T12:08:33.041Z,888.75
2023-04-23T12:09:33.028Z,928.12
2023-04-23T12:10:33.121Z,911.25
2023-04-23T12:11:33.019Z,916.87
2023-04-23T12:12:33.003Z,894.37
2023-04-23T12:13:32.977Z,1721.25
2023-04-23T12:14:32.978Z,1063.12
2023-04-23T12:15:32.988Z,1040.62
2023-04-23T12:16:33.016Z,855.00
2023-04-23T12:17:32.991Z,736.87
2023-04-23T12:18:32.942Z,585.00
2023-04-23T12:19:32.920Z,534.37
2023-04-23T12:20:32.929Z,551.25
2023-04-23T12:21:32.896Z,545.62
2023-04-23T12:22:32.889Z,523.12
2023-04-23T12:23:32.876Z,472.50
2023-04-23T12:24:32.877Z,427.50
2023-04-23T12:25:32.853Z,427.50
2023-04-23T12:26:32.873Z,438.75
2023-04-23T12:27:32.837Z,506.25
2023-04-23T12:28:32.839Z,551.25
2023-04-23T12:29:32.825Z,568.12
2023-04-23T12:30:32.811Z,590.62
2023-04-23T12:31:32.816Z,601.87
2023-04-23T12:32:32.814Z,596.25
2023-04-23T12:33:32.811Z,590.62
2023-04-23T12:34:32.778Z,590.62
2023-04-23T12:35:32.756Z,568.12
2023-04-23T12:36:32.762Z,534.37
2023-04-23T12:37:32.739Z,500.62
2023-04-23T12:38:32.730Z,483.75
2023-04-23T12:39:32.712Z,478.12
2023-04-23T12:40:32.723Z,478.12
2023-04-23T12:41:33.582Z,472.50
2023-04-23T12:42:32.703Z,461.25
2023-04-23T12:43:32.721Z,450.00
2023-04-23T12:44:32.666Z,455.62
2023-04-23T12:45:32.652Z,472.50
2023-04-23T12:46:32.689Z,500.62
2023-04-23T12:47:32.644Z,545.62